sensor_id;sensor_type;location;lat;lon;timestamp;P1;durP1;ratioP1;P2;durP2;ratioP2
78143;SDS011;67394;52.522;13.622;2023-10-31T00:01:51;3.55;;;2.00;;
78143;SDS011;67394;52.522;13.622;2023-10-31T00:04:18;3.53;;;2.22;;
78143;SDS011;67394;52.522;13.622;2023-10-31T00:06:44;3.97;;;1.55;;
78143;SDS011;67394;52.522;13.622;2023-10-31T00:09:11;2.45;;;1.55;;
78143;SDS011;67394;52.522;13.622;2023-10-31T00:11:38;2.38;;;1.52;;
78143;SDS011;67394;52.522;13.622;2023-10-31T00:14:07;4.50;;;2.30;;
78143;SDS011;67394;52.522;13.622;2023-10-31T00:16:53;3.03;;;2.25;;
78143;SDS011;67394;52.522;13.622;2023-10-31T00:19:20;2.10;;;1.38;;
78143;SDS011;67394;52.522;13.622;2023-10-31T00:21:46;3.85;;;2.38;;
78143;SDS011;67394;52.522;13.622;2023-10-31T00:24:13;3.47;;;2.17;;
78143;SDS011;67394;52.522;13.622;2023-10-31T00:26:39;4.18;;;2.22;;
78143;SDS011;67394;52.522;13.622;2023-10-31T00:29:05;3.65;;;1.35;;
78143;SDS011;67394;52.522;13.622;2023-10-31T00:31:32;3.55;;;1.98;;
78143;SDS011;67394;52.522;13.622;2023-10-31T00:33:58;2.33;;;1.83;;
78143;SDS011;67394;52.522;13.622;2023-10-31T00:36:25;2.33;;;1.90;;
78143;SDS011;67394;52.522;13.622;2023-10-31T00:38:51;3.15;;;1.95;;
78143;SDS011;67394;52.522;13.622;2023-10-31T00:41:17;3.65;;;1.90;;
78143;SDS011;67394;52.522;13.622;2023-10-31T00:43:44;2.33;;;1.77;;
78143;SDS011;67394;52.522;13.622;2023-10-31T00:46:10;2.50;;;1.70;;
78143;SDS011;67394;52.522;13.622;2023-10-31T00:48:37;3.70;;;2.00;;
78143;SDS011;67394;52.522;13.622;2023-10-31T00:51:03;3.13;;;2.10;;
78143;SDS011;67394;52.522;13.622;2023-10-31T00:55:57;3.30;;;2.03;;
78143;SDS011;67394;52.522;13.622;2023-10-31T00:58:24;3.45;;;1.85;;
78143;SDS011;67394;52.522;13.622;2023-10-31T01:00:50;3.92;;;2.00;;
78143;SDS011;67394;52.522;13.622;2023-10-31T01:03:16;3.80;;;1.85;;
78143;SDS011;67394;52.522;13.622;2023-10-31T01:05:43;2.67;;;2.03;;
78143;SDS011;67394;52.522;13.622;2023-10-31T01:08:09;2.38;;;1.70;;
78143;SDS011;67394;52.522;13.622;2023-10-31T01:10:36;3.28;;;2.10;;
78143;SDS011;67394;52.522;13.622;2023-10-31T01:13:02;2.42;;;1.77;;
78143;SDS011;67394;52.522;13.622;2023-10-31T01:15:29;3.15;;;2.30;;
78143;SDS011;67394;52.522;13.622;2023-10-31T01:17:55;2.58;;;2.05;;
78143;SDS011;67394;52.522;13.622;2023-10-31T01:20:22;2.83;;;2.03;;
78143;SDS011;67394;52.522;13.622;2023-10-31T01:22:48;2.65;;;1.55;;
78143;SDS011;67394;52.522;13.622;2023-10-31T01:25:15;2.22;;;1.70;;
78143;SDS011;67394;52.522;13.622;2023-10-31T01:27:41;2.85;;;1.60;;
78143;SDS011;67394;52.522;13.622;2023-10-31T01:30:08;3.95;;;1.88;;
78143;SDS011;67394;52.522;13.622;2023-10-31T01:32:35;4.18;;;2.05;;
78143;SDS011;67394;52.522;13.622;2023-10-31T01:35:01;2.75;;;2.00;;
78143;SDS011;67394;52.522;13.622;2023-10-31T01:37:28;5.13;;;2.38;;
78143;SDS011;67394;52.522;13.622;2023-10-31T01:39:54;3.22;;;1.83;;
78143;SDS011;67394;52.522;13.622;2023-10-31T01:42:20;2.30;;;1.63;;
78143;SDS011;67394;52.522;13.622;2023-10-31T01:44:47;3.03;;;1.88;;
78143;SDS011;67394;52.522;13.622;2023-10-31T01:47:13;3.03;;;1.60;;
78143;SDS011;67394;52.522;13.622;2023-10-31T01:49:40;3.95;;;2.20;;
78143;SDS011;67394;52.522;13.622;2023-10-31T01:52:07;3.67;;;2.08;;
78143;SDS011;67394;52.522;13.622;2023-10-31T01:54:34;2.25;;;1.92;;
78143;SDS011;67394;52.522;13.622;2023-10-31T01:57:01;2.63;;;1.80;;
78143;SDS011;67394;52.522;13.622;2023-10-31T01:59:28;3.25;;;2.25;;
78143;SDS011;67394;52.522;13.622;2023-10-31T02:01:55;4.03;;;1.92;;
78143;SDS011;67394;52.522;13.622;2023-10-31T02:04:23;5.80;;;2.28;;
78143;SDS011;67394;52.522;13.622;2023-10-31T02:06:50;3.90;;;2.90;;
78143;SDS011;67394;52.522;13.622;2023-10-31T02:09:17;3.80;;;2.20;;
78143;SDS011;67394;52.522;13.622;2023-10-31T02:11:43;2.88;;;1.85;;
78143;SDS011;67394;52.522;13.622;2023-10-31T02:14:09;2.80;;;1.83;;
78143;SDS011;67394;52.522;13.622;2023-10-31T02:16:36;2.63;;;1.63;;
78143;SDS011;67394;52.522;13.622;2023-10-31T02:19:03;3.78;;;2.22;;
78143;SDS011;67394;52.522;13.622;2023-10-31T02:21:29;4.70;;;2.63;;
78143;SDS011;67394;52.522;13.622;2023-10-31T02:24:00;4.47;;;2.22;;
78143;SDS011;67394;52.522;13.622;2023-10-31T02:26:29;2.30;;;2.00;;
78143;SDS011;67394;52.522;13.622;2023-10-31T02:29:00;3.22;;;2.40;;
78143;SDS011;67394;52.522;13.622;2023-10-31T02:31:27;5.20;;;2.70;;
78143;SDS011;67394;52.522;13.622;2023-10-31T02:33:54;3.47;;;1.92;;
78143;SDS011;67394;52.522;13.622;2023-10-31T02:36:21;4.90;;;2.05;;
78143;SDS011;67394;52.522;13.622;2023-10-31T02:38:47;4.15;;;2.05;;
78143;SDS011;67394;52.522;13.622;2023-10-31T02:41:14;3.35;;;2.28;;
78143;SDS011;67394;52.522;13.622;2023-10-31T02:43:41;3.72;;;2.67;;
78143;SDS011;67394;52.522;13.622;2023-10-31T02:46:10;3.17;;;2.08;;
78143;SDS011;67394;52.522;13.622;2023-10-31T02:48:36;2.35;;;1.85;;
78143;SDS011;67394;52.522;13.622;2023-10-31T02:51:03;3.88;;;2.08;;
78143;SDS011;67394;52.522;13.622;2023-10-31T02:53:30;3.38;;;2.42;;
78143;SDS011;67394;52.522;13.622;2023-10-31T02:55:56;2.90;;;2.35;;
78143;SDS011;67394;52.522;13.622;2023-10-31T02:58:23;3.17;;;2.00;;
78143;SDS011;67394;52.522;13.622;2023-10-31T03:00:49;6.18;;;2.35;;
78143;SDS011;67394;52.522;13.622;2023-10-31T03:03:16;2.55;;;1.55;;
78143;SDS011;67394;52.522;13.622;2023-10-31T03:05:42;4.80;;;1.75;;
78143;SDS011;67394;52.522;13.622;2023-10-31T03:08:09;5.55;;;3.10;;
78143;SDS011;67394;52.522;13.622;2023-10-31T03:10:36;3.53;;;2.25;;
78143;SDS011;67394;52.522;13.622;2023-10-31T03:13:04;5.22;;;2.72;;
78143;SDS011;67394;52.522;13.622;2023-10-31T03:15:30;4.97;;;2.97;;
78143;SDS011;67394;52.522;13.622;2023-10-31T03:17:57;2.45;;;1.83;;
78143;SDS011;67394;52.522;13.622;2023-10-31T03:20:23;7.60;;;2.42;;
78143;SDS011;67394;52.522;13.622;2023-10-31T03:22:50;3.92;;;2.30;;
78143;SDS011;67394;52.522;13.622;2023-10-31T03:25:16;4.05;;;2.10;;
78143;SDS011;67394;52.522;13.622;2023-10-31T03:27:43;2.97;;;2.38;;
78143;SDS011;67394;52.522;13.622;2023-10-31T03:30:09;4.60;;;2.75;;
78143;SDS011;67394;52.522;13.622;2023-10-31T03:32:36;4.15;;;2.75;;
78143;SDS011;67394;52.522;13.622;2023-10-31T03:35:02;5.47;;;2.20;;
78143;SDS011;67394;52.522;13.622;2023-10-31T03:37:29;3.58;;;2.40;;
78143;SDS011;67394;52.522;13.622;2023-10-31T03:39:55;4.25;;;2.08;;
78143;SDS011;67394;52.522;13.622;2023-10-31T03:42:22;2.80;;;2.28;;
78143;SDS011;67394;52.522;13.622;2023-10-31T03:44:48;3.10;;;2.00;;
78143;SDS011;67394;52.522;13.622;2023-10-31T03:47:14;3.95;;;2.63;;
78143;SDS011;67394;52.522;13.622;2023-10-31T03:49:41;3.67;;;2.53;;
78143;SDS011;67394;52.522;13.622;2023-10-31T03:52:08;3.90;;;2.63;;
78143;SDS011;67394;52.522;13.622;2023-10-31T03:54:34;3.33;;;2.20;;
78143;SDS011;67394;52.522;13.622;2023-10-31T03:57:00;3.40;;;2.03;;
78143;SDS011;67394;52.522;13.622;2023-10-31T03:59:27;4.20;;;2.80;;
78143;SDS011;67394;52.522;13.622;2023-10-31T04:01:53;5.65;;;2.47;;
78143;SDS011;67394;52.522;13.622;2023-10-31T04:04:20;4.88;;;2.08;;
78143;SDS011;67394;52.522;13.622;2023-10-31T04:06:46;4.38;;;2.72;;
78143;SDS011;67394;52.522;13.622;2023-10-31T04:09:13;2.83;;;2.08;;
78143;SDS011;67394;52.522;13.622;2023-10-31T04:11:39;7.10;;;2.88;;
78143;SDS011;67394;52.522;13.622;2023-10-31T04:14:05;3.10;;;2.08;;
78143;SDS011;67394;52.522;13.622;2023-10-31T04:16:32;4.18;;;2.47;;
78143;SDS011;67394;52.522;13.622;2023-10-31T04:19:04;5.95;;;2.72;;
78143;SDS011;67394;52.522;13.622;2023-10-31T04:21:31;4.22;;;2.88;;
78143;SDS011;67394;52.522;13.622;2023-10-31T04:23:58;6.47;;;2.47;;
78143;SDS011;67394;52.522;13.622;2023-10-31T04:26:24;3.55;;;2.70;;
78143;SDS011;67394;52.522;13.622;2023-10-31T04:28:50;4.30;;;3.05;;
78143;SDS011;67394;52.522;13.622;2023-10-31T04:31:17;5.15;;;3.42;;
78143;SDS011;67394;52.522;13.622;2023-10-31T04:33:51;2.92;;;2.38;;
78143;SDS011;67394;52.522;13.622;2023-10-31T04:36:17;3.83;;;2.63;;
78143;SDS011;67394;52.522;13.622;2023-10-31T04:38:44;2.85;;;2.33;;
78143;SDS011;67394;52.522;13.622;2023-10-31T04:41:10;4.13;;;3.08;;
78143;SDS011;67394;52.522;13.622;2023-10-31T04:43:36;4.55;;;2.38;;
78143;SDS011;67394;52.522;13.622;2023-10-31T04:46:03;3.75;;;2.50;;
78143;SDS011;67394;52.522;13.622;2023-10-31T04:48:29;5.72;;;3.30;;
78143;SDS011;67394;52.522;13.622;2023-10-31T04:50:55;4.60;;;2.50;;
78143;SDS011;67394;52.522;13.622;2023-10-31T04:53:24;5.28;;;2.92;;
78143;SDS011;67394;52.522;13.622;2023-10-31T04:55:50;5.35;;;3.10;;
78143;SDS011;67394;52.522;13.622;2023-10-31T04:58:17;5.43;;;3.88;;
78143;SDS011;67394;52.522;13.622;2023-10-31T05:00:43;5.95;;;3.58;;
78143;SDS011;67394;52.522;13.622;2023-10-31T05:03:10;3.22;;;2.75;;
78143;SDS011;67394;52.522;13.622;2023-10-31T05:05:36;4.25;;;2.88;;
78143;SDS011;67394;52.522;13.622;2023-10-31T05:08:03;5.30;;;2.63;;
78143;SDS011;67394;52.522;13.622;2023-10-31T05:10:30;4.25;;;3.42;;
78143;SDS011;67394;52.522;13.622;2023-10-31T05:12:56;3.67;;;2.95;;
78143;SDS011;67394;52.522;13.622;2023-10-31T05:15:22;3.55;;;2.90;;
78143;SDS011;67394;52.522;13.622;2023-10-31T05:17:49;5.55;;;4.15;;
78143;SDS011;67394;52.522;13.622;2023-10-31T05:20:15;5.25;;;3.10;;
78143;SDS011;67394;52.522;13.622;2023-10-31T05:22:42;3.80;;;2.67;;
78143;SDS011;67394;52.522;13.622;2023-10-31T05:25:08;4.78;;;2.75;;
78143;SDS011;67394;52.522;13.622;2023-10-31T05:27:35;6.40;;;3.15;;
78143;SDS011;67394;52.522;13.622;2023-10-31T05:30:01;3.28;;;2.95;;
78143;SDS011;67394;52.522;13.622;2023-10-31T05:32:27;8.32;;;3.60;;
78143;SDS011;67394;52.522;13.622;2023-10-31T05:34:54;4.47;;;2.53;;
78143;SDS011;67394;52.522;13.622;2023-10-31T05:37:23;3.50;;;2.58;;
78143;SDS011;67394;52.522;13.622;2023-10-31T05:39:49;3.38;;;2.38;;
78143;SDS011;67394;52.522;13.622;2023-10-31T05:42:16;4.55;;;2.60;;
78143;SDS011;67394;52.522;13.622;2023-10-31T05:44:42;4.82;;;3.97;;
78143;SDS011;67394;52.522;13.622;2023-10-31T05:47:09;6.40;;;3.55;;
78143;SDS011;67394;52.522;13.622;2023-10-31T05:49:36;4.72;;;3.22;;
78143;SDS011;67394;52.522;13.622;2023-10-31T05:52:02;4.05;;;2.42;;
78143;SDS011;67394;52.522;13.622;2023-10-31T05:54:29;3.83;;;3.53;;
78143;SDS011;67394;52.522;13.622;2023-10-31T05:56:55;3.53;;;2.25;;
78143;SDS011;67394;52.522;13.622;2023-10-31T05:59:21;5.22;;;3.20;;
78143;SDS011;67394;52.522;13.622;2023-10-31T06:01:48;5.05;;;3.10;;
78143;SDS011;67394;52.522;13.622;2023-10-31T06:04:14;4.97;;;3.40;;
78143;SDS011;67394;52.522;13.622;2023-10-31T06:06:41;3.83;;;2.90;;
78143;SDS011;67394;52.522;13.622;2023-10-31T06:09:07;4.78;;;2.97;;
78143;SDS011;67394;52.522;13.622;2023-10-31T06:11:34;5.07;;;3.08;;
78143;SDS011;67394;52.522;13.622;2023-10-31T06:14:01;4.22;;;2.50;;
78143;SDS011;67394;52.522;13.622;2023-10-31T06:16:27;3.80;;;2.42;;
78143;SDS011;67394;52.522;13.622;2023-10-31T06:18:54;4.60;;;3.08;;
78143;SDS011;67394;52.522;13.622;2023-10-31T06:21:20;3.63;;;2.13;;
78143;SDS011;67394;52.522;13.622;2023-10-31T06:23:47;5.30;;;2.70;;
78143;SDS011;67394;52.522;13.622;2023-10-31T06:26:13;5.03;;;3.58;;
78143;SDS011;67394;52.522;13.622;2023-10-31T06:28:40;4.95;;;3.22;;
78143;SDS011;67394;52.522;13.622;2023-10-31T06:31:22;4.07;;;3.40;;
78143;SDS011;67394;52.522;13.622;2023-10-31T06:33:49;5.70;;;2.78;;
78143;SDS011;67394;52.522;13.622;2023-10-31T06:36:15;5.68;;;3.70;;
78143;SDS011;67394;52.522;13.622;2023-10-31T06:38:41;4.78;;;2.35;;
78143;SDS011;67394;52.522;13.622;2023-10-31T06:41:08;6.20;;;3.83;;
78143;SDS011;67394;52.522;13.622;2023-10-31T06:43:34;4.30;;;2.88;;
78143;SDS011;67394;52.522;13.622;2023-10-31T06:46:01;4.78;;;2.92;;
78143;SDS011;67394;52.522;13.622;2023-10-31T06:48:28;3.65;;;2.58;;
78143;SDS011;67394;52.522;13.622;2023-10-31T06:50:54;4.80;;;3.13;;
78143;SDS011;67394;52.522;13.622;2023-10-31T06:53:21;5.10;;;3.55;;
78143;SDS011;67394;52.522;13.622;2023-10-31T06:55:47;3.53;;;2.78;;
78143;SDS011;67394;52.522;13.622;2023-10-31T06:58:15;4.03;;;2.85;;
78143;SDS011;67394;52.522;13.622;2023-10-31T07:00:42;2.83;;;2.00;;
78143;SDS011;67394;52.522;13.622;2023-10-31T07:03:08;3.00;;;2.03;;
78143;SDS011;67394;52.522;13.622;2023-10-31T07:05:35;4.38;;;2.83;;
78143;SDS011;67394;52.522;13.622;2023-10-31T07:08:02;2.67;;;2.03;;
78143;SDS011;67394;52.522;13.622;2023-10-31T07:10:28;3.80;;;2.72;;
78143;SDS011;67394;52.522;13.622;2023-10-31T07:12:55;3.78;;;2.33;;
78143;SDS011;67394;52.522;13.622;2023-10-31T07:15:21;4.35;;;2.55;;
78143;SDS011;67394;52.522;13.622;2023-10-31T07:17:48;2.55;;;2.05;;
78143;SDS011;67394;52.522;13.622;2023-10-31T07:20:14;3.40;;;2.50;;
78143;SDS011;67394;52.522;13.622;2023-10-31T07:22:40;3.13;;;1.90;;
78143;SDS011;67394;52.522;13.622;2023-10-31T07:25:07;2.83;;;1.67;;
78143;SDS011;67394;52.522;13.622;2023-10-31T07:27:34;3.00;;;2.15;;
78143;SDS011;67394;52.522;13.622;2023-10-31T07:30:01;3.70;;;2.38;;
78143;SDS011;67394;52.522;13.622;2023-10-31T07:32:28;1.92;;;1.73;;
78143;SDS011;67394;52.522;13.622;2023-10-31T07:34:55;2.58;;;1.77;;
78143;SDS011;67394;52.522;13.622;2023-10-31T07:37:21;3.15;;;2.10;;
78143;SDS011;67394;52.522;13.622;2023-10-31T07:39:48;3.20;;;2.42;;
78143;SDS011;67394;52.522;13.622;2023-10-31T07:42:14;3.72;;;2.28;;
78143;SDS011;67394;52.522;13.622;2023-10-31T07:44:40;2.38;;;1.90;;
78143;SDS011;67394;52.522;13.622;2023-10-31T07:47:07;2.30;;;1.38;;
78143;SDS011;67394;52.522;13.622;2023-10-31T07:49:34;1.35;;;1.10;;
78143;SDS011;67394;52.522;13.622;2023-10-31T07:52:00;2.45;;;1.38;;
78143;SDS011;67394;52.522;13.622;2023-10-31T07:54:26;2.47;;;1.42;;
78143;SDS011;67394;52.522;13.622;2023-10-31T07:56:53;2.72;;;1.60;;
78143;SDS011;67394;52.522;13.622;2023-10-31T07:59:19;1.92;;;1.42;;
78143;SDS011;67394;52.522;13.622;2023-10-31T08:01:46;1.70;;;1.02;;
78143;SDS011;67394;52.522;13.622;2023-10-31T08:04:12;2.15;;;1.35;;
78143;SDS011;67394;52.522;13.622;2023-10-31T08:06:38;1.40;;;1.23;;
78143;SDS011;67394;52.522;13.622;2023-10-31T08:09:05;1.60;;;1.20;;
78143;SDS011;67394;52.522;13.622;2023-10-31T08:11:34;1.75;;;1.33;;
78143;SDS011;67394;52.522;13.622;2023-10-31T08:14:01;1.60;;;1.00;;
78143;SDS011;67394;52.522;13.622;2023-10-31T08:16:27;1.13;;;1.00;;
78143;SDS011;67394;52.522;13.622;2023-10-31T08:18:54;2.20;;;1.40;;
78143;SDS011;67394;52.522;13.622;2023-10-31T08:21:20;1.25;;;1.00;;
78143;SDS011;67394;52.522;13.622;2023-10-31T08:23:47;1.75;;;1.35;;
78143;SDS011;67394;52.522;13.622;2023-10-31T08:26:14;1.52;;;1.10;;
78143;SDS011;67394;52.522;13.622;2023-10-31T08:28:40;0.88;;;0.55;;
78143;SDS011;67394;52.522;13.622;2023-10-31T08:31:07;1.35;;;0.98;;
78143;SDS011;67394;52.522;13.622;2023-10-31T08:33:34;1.15;;;0.85;;
78143;SDS011;67394;52.522;13.622;2023-10-31T08:36:01;1.13;;;0.82;;
78143;SDS011;67394;52.522;13.622;2023-10-31T08:38:27;1.50;;;1.00;;
78143;SDS011;67394;52.522;13.622;2023-10-31T08:40:58;7.85;;;1.30;;
78143;SDS011;67394;52.522;13.622;2023-10-31T08:43:24;0.95;;;0.75;;
78143;SDS011;67394;52.522;13.622;2023-10-31T08:45:51;0.45;;;0.43;;
78143;SDS011;67394;52.522;13.622;2023-10-31T08:48:17;1.00;;;0.70;;
78143;SDS011;67394;52.522;13.622;2023-10-31T08:50:44;1.05;;;0.70;;
78143;SDS011;67394;52.522;13.622;2023-10-31T08:53:10;1.15;;;0.70;;
78143;SDS011;67394;52.522;13.622;2023-10-31T08:55:37;1.80;;;1.13;;
78143;SDS011;67394;52.522;13.622;2023-10-31T08:58:04;1.13;;;0.68;;
78143;SDS011;67394;52.522;13.622;2023-10-31T09:00:30;0.73;;;0.50;;
78143;SDS011;67394;52.522;13.622;2023-10-31T09:02:57;0.47;;;0.47;;
78143;SDS011;67394;52.522;13.622;2023-10-31T09:05:23;0.82;;;0.55;;
78143;SDS011;67394;52.522;13.622;2023-10-31T09:07:50;1.63;;;1.02;;
78143;SDS011;67394;52.522;13.622;2023-10-31T09:10:16;1.05;;;0.77;;
78143;SDS011;67394;52.522;13.622;2023-10-31T09:12:43;1.13;;;0.80;;
78143;SDS011;67394;52.522;13.622;2023-10-31T09:15:09;0.90;;;0.80;;
78143;SDS011;67394;52.522;13.622;2023-10-31T09:17:36;0.77;;;0.68;;
78143;SDS011;67394;52.522;13.622;2023-10-31T09:20:02;0.43;;;0.40;;
78143;SDS011;67394;52.522;13.622;2023-10-31T09:22:29;0.60;;;0.35;;
78143;SDS011;67394;52.522;13.622;2023-10-31T09:24:55;1.25;;;0.45;;
78143;SDS011;67394;52.522;13.622;2023-10-31T09:27:22;0.60;;;0.47;;
78143;SDS011;67394;52.522;13.622;2023-10-31T09:29:49;0.60;;;0.50;;
78143;SDS011;67394;52.522;13.622;2023-10-31T09:32:15;0.77;;;0.43;;
78143;SDS011;67394;52.522;13.622;2023-10-31T09:34:41;0.38;;;0.38;;
78143;SDS011;67394;52.522;13.622;2023-10-31T09:37:08;0.70;;;0.65;;
78143;SDS011;67394;52.522;13.622;2023-10-31T09:39:34;0.60;;;0.52;;
78143;SDS011;67394;52.522;13.622;2023-10-31T09:42:01;0.88;;;0.68;;
78143;SDS011;67394;52.522;13.622;2023-10-31T09:44:27;0.20;;;0.10;;
78143;SDS011;67394;52.522;13.622;2023-10-31T09:46:54;0.30;;;0.30;;
78143;SDS011;67394;52.522;13.622;2023-10-31T09:49:21;0.68;;;0.50;;
78143;SDS011;67394;52.522;13.622;2023-10-31T09:51:48;0.47;;;0.40;;
78143;SDS011;67394;52.522;13.622;2023-10-31T09:54:14;0.70;;;0.60;;
78143;SDS011;67394;52.522;13.622;2023-10-31T09:56:43;0.68;;;0.60;;
78143;SDS011;67394;52.522;13.622;2023-10-31T09:59:10;2.55;;;1.20;;
78143;SDS011;67394;52.522;13.622;2023-10-31T10:01:36;0.43;;;0.40;;
78143;SDS011;67394;52.522;13.622;2023-10-31T10:04:04;0.60;;;0.60;;
78143;SDS011;67394;52.522;13.622;2023-10-31T10:06:32;0.80;;;0.68;;
78143;SDS011;67394;52.522;13.622;2023-10-31T10:08:59;0.52;;;0.50;;
78143;SDS011;67394;52.522;13.622;2023-10-31T10:11:25;0.73;;;0.60;;
78143;SDS011;67394;52.522;13.622;2023-10-31T10:13:52;0.80;;;0.80;;
78143;SDS011;67394;52.522;13.622;2023-10-31T10:16:28;0.28;;;0.25;;
78143;SDS011;67394;52.522;13.622;2023-10-31T10:19:17;0.52;;;0.40;;
78143;SDS011;67394;52.522;13.622;2023-10-31T10:24:18;1.20;;;0.77;;
78143;SDS011;67394;52.522;13.622;2023-10-31T10:26:48;0.70;;;0.63;;
78143;SDS011;67394;52.522;13.622;2023-10-31T10:29:15;1.42;;;1.23;;
78143;SDS011;67394;52.522;13.622;2023-10-31T10:31:42;1.45;;;0.75;;
78143;SDS011;67394;52.522;13.622;2023-10-31T10:34:08;1.13;;;0.73;;
78143;SDS011;67394;52.522;13.622;2023-10-31T10:36:35;0.50;;;0.40;;
78143;SDS011;67394;52.522;13.622;2023-10-31T10:39:01;3.90;;;1.30;;
78143;SDS011;67394;52.522;13.622;2023-10-31T10:41:28;0.45;;;0.45;;
78143;SDS011;67394;52.522;13.622;2023-10-31T10:46:24;0.28;;;0.28;;
78143;SDS011;67394;52.522;13.622;2023-10-31T10:48:54;1.00;;;0.88;;
78143;SDS011;67394;52.522;13.622;2023-10-31T10:51:24;1.83;;;1.15;;
78143;SDS011;67394;52.522;13.622;2023-10-31T10:53:56;0.93;;;0.52;;
78143;SDS011;67394;52.522;13.622;2023-10-31T10:57:14;0.82;;;0.70;;
78143;SDS011;67394;52.522;13.622;2023-10-31T11:02:07;0.65;;;0.55;;
78143;SDS011;67394;52.522;13.622;2023-10-31T11:07:02;1.10;;;0.98;;
78143;SDS011;67394;52.522;13.622;2023-10-31T11:11:57;1.00;;;0.73;;
78143;SDS011;67394;52.522;13.622;2023-10-31T11:14:24;1.08;;;0.75;;
78143;SDS011;67394;52.522;13.622;2023-10-31T11:16:53;0.75;;;0.65;;
78143;SDS011;67394;52.522;13.622;2023-10-31T11:19:22;1.83;;;0.95;;
78143;SDS011;67394;52.522;13.622;2023-10-31T11:21:53;0.90;;;0.43;;
78143;SDS011;67394;52.522;13.622;2023-10-31T11:24:21;0.95;;;0.82;;
78143;SDS011;67394;52.522;13.622;2023-10-31T11:26:51;6.43;;;0.80;;
78143;SDS011;67394;52.522;13.622;2023-10-31T11:29:19;1.10;;;0.80;;
78143;SDS011;67394;52.522;13.622;2023-10-31T11:31:46;0.98;;;0.88;;
78143;SDS011;67394;52.522;13.622;2023-10-31T11:34:15;1.48;;;1.05;;
78143;SDS011;67394;52.522;13.622;2023-10-31T11:36:42;1.38;;;0.90;;
78143;SDS011;67394;52.522;13.622;2023-10-31T11:39:15;1.10;;;0.70;;
78143;SDS011;67394;52.522;13.622;2023-10-31T11:41:50;1.17;;;0.70;;
78143;SDS011;67394;52.522;13.622;2023-10-31T11:44:22;4.00;;;1.30;;
78143;SDS011;67394;52.522;13.622;2023-10-31T11:46:52;0.50;;;0.50;;
78143;SDS011;67394;52.522;13.622;2023-10-31T11:49:45;1.50;;;1.05;;
78143;SDS011;67394;52.522;13.622;2023-10-31T11:52:15;1.25;;;0.68;;
78143;SDS011;67394;52.522;13.622;2023-10-31T11:54:42;0.88;;;0.70;;
78143;SDS011;67394;52.522;13.622;2023-10-31T11:59:39;1.02;;;0.60;;
78143;SDS011;67394;52.522;13.622;2023-10-31T12:02:15;0.90;;;0.70;;
78143;SDS011;67394;52.522;13.622;2023-10-31T12:04:42;1.27;;;0.68;;
78143;SDS011;67394;52.522;13.622;2023-10-31T12:07:08;1.00;;;0.88;;
78143;SDS011;67394;52.522;13.622;2023-10-31T12:09:46;1.70;;;0.85;;
78143;SDS011;67394;52.522;13.622;2023-10-31T12:12:14;1.15;;;0.65;;
78143;SDS011;67394;52.522;13.622;2023-10-31T12:17:07;0.95;;;0.90;;
78143;SDS011;67394;52.522;13.622;2023-10-31T12:19:34;1.08;;;0.85;;
78143;SDS011;67394;52.522;13.622;2023-10-31T12:22:00;2.30;;;0.90;;
78143;SDS011;67394;52.522;13.622;2023-10-31T12:24:26;0.57;;;0.40;;
78143;SDS011;67394;52.522;13.622;2023-10-31T12:26:53;1.30;;;0.50;;
78143;SDS011;67394;52.522;13.622;2023-10-31T12:29:20;1.02;;;0.75;;
78143;SDS011;67394;52.522;13.622;2023-10-31T12:31:48;0.32;;;0.32;;
78143;SDS011;67394;52.522;13.622;2023-10-31T12:34:16;0.43;;;0.43;;
78143;SDS011;67394;52.522;13.622;2023-10-31T12:36:45;1.75;;;0.50;;
78143;SDS011;67394;52.522;13.622;2023-10-31T12:39:13;0.85;;;0.70;;
78143;SDS011;67394;52.522;13.622;2023-10-31T12:41:40;0.63;;;0.60;;
78143;SDS011;67394;52.522;13.622;2023-10-31T12:44:08;0.60;;;0.30;;
78143;SDS011;67394;52.522;13.622;2023-10-31T12:46:35;0.40;;;0.40;;
78143;SDS011;67394;52.522;13.622;2023-10-31T12:49:01;0.95;;;0.60;;
78143;SDS011;67394;52.522;13.622;2023-10-31T12:51:28;1.58;;;0.60;;
78143;SDS011;67394;52.522;13.622;2023-10-31T12:53:55;0.57;;;0.50;;
78143;SDS011;67394;52.522;13.622;2023-10-31T12:59:03;0.50;;;0.50;;
78143;SDS011;67394;52.522;13.622;2023-10-31T13:01:29;1.02;;;1.02;;
78143;SDS011;67394;52.522;13.622;2023-10-31T13:03:56;0.55;;;0.40;;
78143;SDS011;67394;52.522;13.622;2023-10-31T13:06:22;0.60;;;0.40;;
78143;SDS011;67394;52.522;13.622;2023-10-31T13:08:49;0.63;;;0.40;;
78143;SDS011;67394;52.522;13.622;2023-10-31T13:11:16;0.57;;;0.57;;
78143;SDS011;67394;52.522;13.622;2023-10-31T13:13:42;0.40;;;0.40;;
78143;SDS011;67394;52.522;13.622;2023-10-31T13:16:09;3.22;;;0.50;;
78143;SDS011;67394;52.522;13.622;2023-10-31T13:18:35;0.28;;;0.17;;
78143;SDS011;67394;52.522;13.622;2023-10-31T13:21:01;0.28;;;0.28;;
78143;SDS011;67394;52.522;13.622;2023-10-31T13:23:28;0.65;;;0.43;;
78143;SDS011;67394;52.522;13.622;2023-10-31T13:25:55;0.40;;;0.40;;
78143;SDS011;67394;52.522;13.622;2023-10-31T13:28:21;0.45;;;0.30;;
78143;SDS011;67394;52.522;13.622;2023-10-31T13:30:47;1.33;;;0.75;;
78143;SDS011;67394;52.522;13.622;2023-10-31T13:35:41;0.93;;;0.70;;
78143;SDS011;67394;52.522;13.622;2023-10-31T13:38:07;0.17;;;0.17;;
78143;SDS011;67394;52.522;13.622;2023-10-31T13:40:34;0.40;;;0.30;;
78143;SDS011;67394;52.522;13.622;2023-10-31T13:43:00;0.47;;;0.40;;
78143;SDS011;67394;52.522;13.622;2023-10-31T13:45:27;1.30;;;0.55;;
78143;SDS011;67394;52.522;13.622;2023-10-31T13:47:53;0.80;;;0.40;;
78143;SDS011;67394;52.522;13.622;2023-10-31T13:50:20;0.40;;;0.40;;
78143;SDS011;67394;52.522;13.622;2023-10-31T13:52:46;0.73;;;0.60;;
78143;SDS011;67394;52.522;13.622;2023-10-31T13:55:12;0.77;;;0.57;;
78143;SDS011;67394;52.522;13.622;2023-10-31T13:57:39;0.65;;;0.40;;
78143;SDS011;67394;52.522;13.622;2023-10-31T14:00:05;0.40;;;0.40;;
78143;SDS011;67394;52.522;13.622;2023-10-31T14:05:01;0.80;;;0.63;;
78143;SDS011;67394;52.522;13.622;2023-10-31T14:07:28;0.28;;;0.28;;
78143;SDS011;67394;52.522;13.622;2023-10-31T14:09:55;0.50;;;0.43;;
78143;SDS011;67394;52.522;13.622;2023-10-31T14:12:21;1.23;;;0.68;;
78143;SDS011;67394;52.522;13.622;2023-10-31T14:14:48;0.52;;;0.40;;
78143;SDS011;67394;52.522;13.622;2023-10-31T14:17:15;0.43;;;0.40;;
78143;SDS011;67394;52.522;13.622;2023-10-31T14:19:42;0.47;;;0.38;;
78143;SDS011;67394;52.522;13.622;2023-10-31T14:22:11;0.28;;;0.20;;
78143;SDS011;67394;52.522;13.622;2023-10-31T14:24:38;0.10;;;0.10;;
78143;SDS011;67394;52.522;13.622;2023-10-31T14:27:04;0.32;;;0.32;;
78143;SDS011;67394;52.522;13.622;2023-10-31T14:29:31;0.10;;;0.10;;
78143;SDS011;67394;52.522;13.622;2023-10-31T14:32:04;1.00;;;0.50;;
78143;SDS011;67394;52.522;13.622;2023-10-31T14:34:35;0.50;;;0.50;;
78143;SDS011;67394;52.522;13.622;2023-10-31T14:39:28;0.20;;;0.20;;
78143;SDS011;67394;52.522;13.622;2023-10-31T14:41:54;0.10;;;0.10;;
78143;SDS011;67394;52.522;13.622;2023-10-31T14:44:21;0.57;;;0.35;;
78143;SDS011;67394;52.522;13.622;2023-10-31T14:46:48;0.63;;;0.52;;
78143;SDS011;67394;52.522;13.622;2023-10-31T14:49:14;0.50;;;0.43;;
78143;SDS011;67394;52.522;13.622;2023-10-31T14:51:40;0.47;;;0.40;;
78143;SDS011;67394;52.522;13.622;2023-10-31T14:54:07;1.15;;;0.68;;
78143;SDS011;67394;52.522;13.622;2023-10-31T14:56:34;0.45;;;0.40;;
78143;SDS011;67394;52.522;13.622;2023-10-31T14:59:00;0.90;;;0.70;;
78143;SDS011;67394;52.522;13.622;2023-10-31T15:01:27;1.15;;;0.55;;
78143;SDS011;67394;52.522;13.622;2023-10-31T15:03:54;0.88;;;0.45;;